createdAt,value
2022-07-25T00:01:50.339Z,100480.34
2022-07-25T00:04:17.502Z,100474.88
2022-07-25T00:06:45.901Z,100477.44
2022-07-25T00:09:12.784Z,100475.25
2022-07-25T00:11:39.669Z,100461.06
2022-07-25T00:14:06.996Z,100458.13
2022-07-25T00:16:34.451Z,100453.53
2022-07-25T00:19:01.360Z,100450.97
2022-07-25T00:21:28.492Z,100450.16
2022-07-25T00:23:55.196Z,100444.00
2022-07-25T00:26:21.955Z,100437.50
2022-07-25T00:28:48.611Z,100438.28
2022-07-25T00:31:15.549Z,100435.50
2022-07-25T00:33:42.261Z,100433.88
2022-07-25T00:36:09.359Z,100429.03
2022-07-25T00:38:36.311Z,100430.84
2022-07-25T00:41:04.746Z,100430.19
2022-07-25T00:43:31.775Z,100421.47
2022-07-25T00:45:59.553Z,100415.41
2022-07-25T00:48:28.575Z,100415.91
2022-07-25T00:50:56.461Z,100421.09
2022-07-25T00:53:23.888Z,100427.09
2022-07-25T00:55:50.703Z,100419.94
2022-07-25T00:58:18.956Z,100421.31
2022-07-25T01:00:46.614Z,100413.91
2022-07-25T01:03:13.408Z,100415.13
2022-07-25T01:05:40.402Z,100411.44
2022-07-25T01:08:08.907Z,100412.75
2022-07-25T01:10:36.268Z,100409.41
2022-07-25T01:13:03.117Z,100405.09
2022-07-25T01:15:30.250Z,100409.72
2022-07-25T01:17:56.975Z,100398.63
2022-07-25T01:20:26.626Z,100402.63
2022-07-25T01:22:54.508Z,100401.97
2022-07-25T01:25:21.866Z,100401.09
2022-07-25T01:27:54.614Z,100391.00
2022-07-25T01:30:23.938Z,100388.56
2022-07-25T01:32:51.242Z,100389.28
2022-07-25T01:35:17.983Z,100383.28
2022-07-25T01:37:45.837Z,100382.59
2022-07-25T01:40:13.755Z,100382.97
2022-07-25T01:42:40.482Z,100384.88
2022-07-25T01:45:08.023Z,100382.34
2022-07-25T01:47:34.918Z,100365.16
2022-07-25T01:50:01.772Z,100377.19
2022-07-25T01:52:28.458Z,100371.66
2022-07-25T01:54:55.413Z,100366.97
2022-07-25T01:57:23.333Z,100363.88
2022-07-25T01:59:57.367Z,100367.19
2022-07-25T02:02:24.114Z,100358.25
2022-07-25T02:04:50.848Z,100363.16
2022-07-25T02:07:17.613Z,100360.66
2022-07-25T02:09:44.337Z,100353.97
2022-07-25T02:12:11.012Z,100356.75
2022-07-25T02:14:37.822Z,100358.50
2022-07-25T02:17:04.527Z,100351.66
2022-07-25T02:19:31.322Z,100356.25
2022-07-25T02:21:58.017Z,100351.44
2022-07-25T02:24:24.782Z,100343.19
2022-07-25T02:26:51.522Z,100353.06
2022-07-25T02:29:18.490Z,100353.56
2022-07-25T02:31:48.836Z,100343.97
2022-07-25T02:34:15.493Z,100334.75
2022-07-25T02:36:42.261Z,100340.72
2022-07-25T02:39:08.934Z,100336.34
2022-07-25T02:41:35.743Z,100341.94
2022-07-25T02:44:02.609Z,100335.69
2022-07-25T02:46:29.578Z,100327.59
2022-07-25T02:48:56.371Z,100326.44
2022-07-25T02:51:23.339Z,100335.81
2022-07-25T02:53:59.130Z,100325.78
2022-07-25T02:56:30.088Z,100320.44
2022-07-25T02:58:57.661Z,100315.25
2022-07-25T03:01:24.581Z,100309.19
2022-07-25T03:03:51.588Z,100313.78
2022-07-25T03:06:18.364Z,100304.19
2022-07-25T03:08:45.065Z,100302.47
2022-07-25T03:11:13.006Z,100297.47
2022-07-25T03:13:39.747Z,100298.25
2022-07-25T03:16:06.791Z,100286.75
2022-07-25T03:18:33.548Z,100290.94
2022-07-25T03:21:00.227Z,100288.09
2022-07-25T03:23:28.385Z,100290.50
2022-07-25T03:25:56.094Z,100289.91
2022-07-25T03:28:24.856Z,100293.00
2022-07-25T03:30:52.266Z,100290.09
2022-07-25T03:33:19.168Z,100280.09
2022-07-25T03:35:45.975Z,100282.16
2022-07-25T03:38:12.676Z,100274.56
2022-07-25T03:40:39.690Z,100270.03
2022-07-25T03:43:06.610Z,100268.03
2022-07-25T03:45:33.372Z,100262.63
2022-07-25T03:48:01.008Z,100262.47
2022-07-25T03:50:27.712Z,100260.34
2022-07-25T03:52:54.413Z,100262.34
2022-07-25T03:55:21.256Z,100245.81
2022-07-25T03:57:47.921Z,100243.84
2022-07-25T04:00:15.648Z,100244.09
2022-07-25T04:02:42.592Z,100241.00
2022-07-25T04:05:10.192Z,100241.41
2022-07-25T04:07:37.263Z,100234.13
2022-07-25T04:10:06.390Z,100239.28
2022-07-25T04:12:33.470Z,100234.53
2022-07-25T04:15:00.109Z,100230.00
2022-07-25T04:17:26.809Z,100230.50
2022-07-25T04:19:53.488Z,100217.25
2022-07-25T04:22:20.527Z,100219.94
2022-07-25T04:24:47.295Z,100220.78
2022-07-25T04:27:13.995Z,100218.03
2022-07-25T04:29:40.641Z,100218.19
2022-07-25T04:32:07.759Z,100218.03
2022-07-25T04:34:34.574Z,100206.28
2022-07-25T04:37:01.348Z,100207.53
2022-07-25T04:39:28.099Z,100213.06
2022-07-25T04:41:54.798Z,100199.63
2022-07-25T04:44:21.444Z,100197.88
2022-07-25T04:46:48.176Z,100196.50
2022-07-25T04:49:14.842Z,100188.69
2022-07-25T04:51:41.622Z,100181.00
2022-07-25T04:54:09.822Z,100184.06
2022-07-25T04:56:37.054Z,100186.47
2022-07-25T04:59:06.595Z,100171.63
2022-07-25T05:01:35.351Z,100179.34
2022-07-25T05:04:02.153Z,100171.91
2022-07-25T05:06:29.223Z,100182.56
2022-07-25T05:08:55.989Z,100165.56
2022-07-25T05:11:22.769Z,100162.69
2022-07-25T05:13:49.454Z,100168.44
2022-07-25T05:16:16.368Z,100161.69
2022-07-25T05:18:43.113Z,100158.34
2022-07-25T05:21:11.655Z,100159.88
2022-07-25T05:23:38.402Z,100145.56
2022-07-25T05:26:05.252Z,100148.22
2022-07-25T05:28:31.868Z,100145.84
2022-07-25T05:30:58.632Z,100144.50
2022-07-25T05:33:26.579Z,100145.16
2022-07-25T05:35:53.390Z,100143.53
2022-07-25T05:38:20.530Z,100142.75
2022-07-25T05:40:48.112Z,100139.41
2022-07-25T05:43:14.884Z,100138.19
2022-07-25T05:45:41.791Z,100133.06
2022-07-25T05:48:08.882Z,100134.88
2022-07-25T05:50:39.679Z,100124.75
2022-07-25T05:53:07.077Z,100129.31
2022-07-25T05:55:33.790Z,100127.44
2022-07-25T05:58:02.385Z,100132.03
2022-07-25T06:00:29.565Z,100124.50
2022-07-25T06:02:58.371Z,100118.44
2022-07-25T06:05:25.168Z,100112.81
2022-07-25T06:07:51.899Z,100119.03
2022-07-25T06:10:18.648Z,100106.53
2022-07-25T06:12:45.425Z,100101.97
2022-07-25T06:15:19.741Z,100097.91
2022-07-25T06:17:53.662Z,100089.28
2022-07-25T06:20:20.665Z,100094.06
2022-07-25T06:22:47.388Z,100093.00
2022-07-25T06:25:15.026Z,100081.81
2022-07-25T06:27:41.828Z,100081.03
2022-07-25T06:30:19.142Z,100075.56
2022-07-25T06:32:48.507Z,100073.34
2022-07-25T06:35:15.922Z,100078.28
2022-07-25T06:37:42.964Z,100073.69
2022-07-25T06:40:10.348Z,100065.44
2022-07-25T06:42:44.984Z,100075.41
2022-07-25T06:45:13.690Z,100061.50
2022-07-25T06:47:42.452Z,100059.59
2022-07-25T06:50:12.037Z,100059.59
2022-07-25T06:52:39.954Z,100057.06
2022-07-25T06:55:08.549Z,100051.53
2022-07-25T06:57:36.112Z,100050.28
2022-07-25T07:00:07.215Z,100037.25
2022-07-25T07:02:33.876Z,100039.50
2022-07-25T07:05:00.563Z,100046.06
2022-07-25T07:07:27.802Z,100034.22
2022-07-25T07:09:54.442Z,100040.06
2022-07-25T07:12:22.114Z,100037.94
2022-07-25T07:14:48.813Z,100029.78
2022-07-25T07:17:15.394Z,100034.59
2022-07-25T07:19:44.588Z,100031.78
2022-07-25T07:22:11.570Z,100025.78
2022-07-25T07:24:44.075Z,100025.50
2022-07-25T07:27:11.944Z,100025.03
2022-07-25T07:29:38.769Z,100024.22
2022-07-25T07:32:07.093Z,100022.13
2022-07-25T07:34:34.033Z,100014.78
2022-07-25T07:37:00.796Z,100011.84
2022-07-25T07:39:27.354Z,100015.25
2022-07-25T07:41:54.144Z,100011.81
2022-07-25T07:44:20.682Z,100014.88
2022-07-25T07:46:47.504Z,100001.41
2022-07-25T07:49:14.146Z,99998.06
2022-07-25T07:51:40.918Z,100003.09
2022-07-25T07:54:26.276Z,99991.13
2022-07-25T07:56:53.056Z,99993.47
2022-07-25T07:59:19.630Z,99992.94
2022-07-25T08:01:46.389Z,99991.78
2022-07-25T08:04:12.998Z,99995.69
2022-07-25T08:06:40.687Z,99987.13
2022-07-25T08:09:07.609Z,99978.47
2022-07-25T08:11:35.024Z,99983.75
2022-07-25T08:14:01.849Z,99976.97
2022-07-25T08:16:28.697Z,99976.88
2022-07-25T08:18:55.398Z,99976.88
2022-07-25T08:21:21.982Z,99973.03
2022-07-25T08:23:48.669Z,99962.00
2022-07-25T08:26:15.895Z,99960.97
2022-07-25T08:28:42.811Z,99966.56
2022-07-25T08:31:10.352Z,99964.69
2022-07-25T08:33:37.465Z,99947.63
2022-07-25T08:36:04.455Z,99949.44
2022-07-25T08:38:31.365Z,99951.41
2022-07-25T08:40:58.868Z,99946.19
2022-07-25T08:43:25.670Z,99951.38
2022-07-25T08:45:54.655Z,99948.25
2022-07-25T08:48:24.464Z,99945.59
2022-07-25T08:50:52.764Z,99938.63
2022-07-25T08:53:36.292Z,99940.78
2022-07-25T08:56:14.886Z,99943.31
2022-07-25T08:58:45.777Z,99927.53
2022-07-25T09:01:13.646Z,99932.25
2022-07-25T09:03:42.194Z,99933.00
2022-07-25T09:06:20.321Z,99934.59
2022-07-25T09:08:56.048Z,99924.84
2022-07-25T09:11:27.608Z,99926.75
2022-07-25T09:14:20.386Z,99923.09
2022-07-25T09:16:47.473Z,99919.19
2022-07-25T09:19:21.528Z,99911.31
2022-07-25T09:22:06.453Z,99917.16
2022-07-25T09:24:36.900Z,99907.78
2022-07-25T09:27:12.460Z,99908.56
2022-07-25T09:29:40.794Z,99907.91
2022-07-25T09:32:22.182Z,99898.41
2022-07-25T09:34:50.134Z,99910.75
2022-07-25T09:37:19.655Z,99904.63
2022-07-25T09:39:48.750Z,99899.84
2022-07-25T09:42:32.090Z,99893.81
2022-07-25T09:45:03.179Z,99897.25
2022-07-25T09:47:33.418Z,99891.75
2022-07-25T09:50:00.592Z,99888.44
2022-07-25T09:52:27.383Z,99883.66
2022-07-25T09:54:54.964Z,99882.34
2022-07-25T09:57:24.163Z,99882.69
2022-07-25T09:59:50.989Z,99879.66
2022-07-25T10:02:50.899Z,99869.63
2022-07-25T10:05:23.823Z,99863.91
2022-07-25T10:07:53.025Z,99862.03
2022-07-25T10:10:26.076Z,99855.25
2022-07-25T10:13:11.210Z,99853.69
2022-07-25T10:15:51.876Z,99851.69
2022-07-25T10:18:20.883Z,99842.41
2022-07-25T10:20:49.929Z,99844.34
2022-07-25T10:23:28.451Z,99839.97
2022-07-25T10:26:16.246Z,99815.22
2022-07-25T10:28:47.746Z,99827.19
2022-07-25T10:31:25.063Z,99814.72
2022-07-25T10:34:01.939Z,99804.03
2022-07-25T10:36:42.201Z,99806.00
2022-07-25T10:39:11.937Z,99813.44
2022-07-25T10:41:40.140Z,99807.25
2022-07-25T10:44:13.911Z,99803.03
2022-07-25T10:46:44.060Z,99799.91
2022-07-25T10:49:31.053Z,99801.59
2022-07-25T10:52:05.926Z,99807.84
2022-07-25T10:54:39.572Z,99801.09
2022-07-25T10:57:14.851Z,99798.59
2022-07-25T10:59:41.728Z,99800.75
2022-07-25T11:02:16.390Z,99805.88
2022-07-25T11:04:59.863Z,99797.78
2022-07-25T11:07:28.736Z,99794.97
2022-07-25T11:10:00.367Z,99791.28
2022-07-25T11:12:28.811Z,99799.22
2022-07-25T11:15:07.305Z,99795.78
2022-07-25T11:17:34.624Z,99791.44
2022-07-25T11:20:05.884Z,99781.50
2022-07-25T11:22:34.545Z,99790.06
2022-07-25T11:25:02.392Z,99781.75
2022-07-25T11:27:33.468Z,99778.31
2022-07-25T11:30:10.296Z,99783.09
2022-07-25T11:32:40.571Z,99775.91
2022-07-25T11:35:08.314Z,99778.38
2022-07-25T11:37:39.333Z,99767.09
2022-07-25T11:40:07.150Z,99774.34
2022-07-25T11:42:48.249Z,99768.59
2022-07-25T11:45:25.640Z,99767.09
2022-07-25T11:48:13.836Z,99761.38
2022-07-25T11:50:42.848Z,99760.78
2022-07-25T11:53:14.059Z,99769.38
2022-07-25T11:55:44.874Z,99755.16
2022-07-25T11:58:13.320Z,99752.63
2022-07-25T12:00:42.270Z,99755.63
2022-07-25T12:03:19.549Z,99756.94
2022-07-25T12:05:47.476Z,99743.72
2022-07-25T12:08:20.011Z,99735.16
2022-07-25T12:10:49.296Z,99745.06
2022-07-25T12:13:30.127Z,99724.03
2022-07-25T12:15:58.684Z,99724.72
2022-07-25T12:18:25.908Z,99719.56
2022-07-25T12:20:53.295Z,99721.72
2022-07-25T12:23:21.865Z,99714.03
2022-07-25T12:25:49.258Z,99725.06
2022-07-25T12:28:16.205Z,99726.22
2022-07-25T12:30:45.133Z,99723.31
2022-07-25T12:33:13.000Z,99717.56
2022-07-25T12:35:44.131Z,99720.88
2022-07-25T12:38:11.613Z,99727.91
2022-07-25T12:40:38.646Z,99731.31
2022-07-25T12:43:05.704Z,99729.50
2022-07-25T12:45:33.246Z,99724.47
2022-07-25T12:48:00.075Z,99727.91
2022-07-25T12:50:27.009Z,99721.56
2022-07-25T12:52:53.851Z,99727.00
2022-07-25T12:55:21.254Z,99716.66
2022-07-25T12:57:49.712Z,99723.31
2022-07-25T13:00:19.199Z,99730.66
2022-07-25T13:02:46.255Z,99728.03
2022-07-25T13:05:13.026Z,99736.06
2022-07-25T13:07:40.344Z,99738.47
2022-07-25T13:10:07.745Z,99729.25
2022-07-25T13:12:35.196Z,99732.72
2022-07-25T13:15:02.507Z,99730.75
2022-07-25T13:17:29.343Z,99722.06
2022-07-25T13:19:57.103Z,99729.94
2022-07-25T13:22:25.263Z,99720.66
2022-07-25T13:24:52.588Z,99718.94
2022-07-25T13:27:20.680Z,99717.38
2022-07-25T13:29:47.520Z,99721.53
2022-07-25T13:32:14.359Z,99717.66
2022-07-25T13:34:41.112Z,99710.31
2022-07-25T13:37:07.940Z,99714.38
2022-07-25T13:39:35.850Z,99718.88
2022-07-25T13:42:03.157Z,99715.25
2022-07-25T13:44:29.849Z,99722.31
2022-07-25T13:46:57.500Z,99716.41
2022-07-25T13:49:25.297Z,99717.47
2022-07-25T13:51:52.141Z,99725.06
2022-07-25T13:54:18.823Z,99708.91
2022-07-25T13:56:45.639Z,99711.34
2022-07-25T13:59:17.344Z,99709.50
2022-07-25T14:01:47.644Z,99713.50
2022-07-25T14:04:15.541Z,99708.22
2022-07-25T14:06:42.574Z,99717.63
2022-07-25T14:09:09.832Z,99721.09
2022-07-25T14:11:36.822Z,99719.06
2022-07-25T14:14:03.786Z,99716.94
2022-07-25T14:16:30.847Z,99723.06
2022-07-25T14:18:57.668Z,99726.25
2022-07-25T14:21:24.457Z,99720.44
2022-07-25T14:23:52.336Z,99721.31
2022-07-25T14:26:19.114Z,99720.09
2022-07-25T14:28:45.828Z,99720.44
2022-07-25T14:31:12.699Z,99721.03
2022-07-25T14:33:40.182Z,99711.09
2022-07-25T14:36:09.276Z,99722.00
2022-07-25T14:38:35.965Z,99718.88
2022-07-25T14:41:05.679Z,99715.56
2022-07-25T14:43:35.808Z,99707.34
2022-07-25T14:46:02.433Z,99703.41
2022-07-25T14:48:29.309Z,99703.38
2022-07-25T14:50:56.030Z,99700.25
2022-07-25T14:53:22.840Z,99694.59
2022-07-25T14:55:49.577Z,99687.28
2022-07-25T14:58:16.274Z,99695.97
2022-07-25T15:00:43.758Z,99696.25
2022-07-25T15:03:10.620Z,99686.09
2022-07-25T15:05:38.476Z,99694.09
2022-07-25T15:08:06.601Z,99697.69
2022-07-25T15:10:33.602Z,99685.03
2022-07-25T15:13:28.329Z,99698.69
2022-07-25T15:15:48.268Z,99697.91
2022-07-25T15:18:15.102Z,99698.38
2022-07-25T15:20:41.876Z,99699.19
2022-07-25T15:23:08.703Z,99692.19
2022-07-25T15:26:00.644Z,99689.06
2022-07-25T15:28:22.417Z,99690.78
2022-07-25T15:30:50.336Z,99677.09
2022-07-25T15:33:20.363Z,99673.06
2022-07-25T15:35:48.255Z,99670.69
2022-07-25T15:38:15.893Z,99664.03
2022-07-25T15:40:44.258Z,99654.03
2022-07-25T15:43:11.569Z,99642.78
2022-07-25T15:45:44.249Z,99632.78
2022-07-25T15:48:13.157Z,99634.53
2022-07-25T15:50:43.235Z,99640.59
2022-07-25T15:53:10.673Z,99641.97
2022-07-25T15:55:38.710Z,99636.53
2022-07-25T15:58:06.595Z,99634.59
2022-07-25T16:00:34.002Z,99630.69
2022-07-25T16:03:00.983Z,99623.50
2022-07-25T16:05:27.730Z,99625.69
2022-07-25T16:07:54.601Z,99635.91
2022-07-25T16:10:21.433Z,99629.44
2022-07-25T16:12:48.649Z,99624.47
2022-07-25T16:15:16.180Z,99625.19
2022-07-25T16:17:43.047Z,99616.38
2022-07-25T16:20:10.424Z,99623.81
2022-07-25T16:22:39.471Z,99606.78
2022-07-25T16:25:06.811Z,99601.41
2022-07-25T16:27:33.659Z,99614.94
2022-07-25T16:30:01.128Z,99617.78
2022-07-25T16:32:27.977Z,99619.69
2022-07-25T16:34:54.624Z,99612.59
2022-07-25T16:37:21.470Z,99609.25
2022-07-25T16:39:48.259Z,99617.09
2022-07-25T16:42:15.017Z,99610.59
2022-07-25T16:44:41.679Z,99626.81
2022-07-25T16:47:08.832Z,99623.97
2022-07-25T16:49:35.662Z,99621.34
2022-07-25T16:52:02.838Z,99626.03
2022-07-25T16:54:29.588Z,99636.38
2022-07-25T16:56:59.603Z,99650.09
2022-07-25T16:59:27.194Z,99656.19
2022-07-25T17:01:54.228Z,99663.06
2022-07-25T17:04:21.286Z,99654.34
2022-07-25T17:06:49.177Z,99709.75
2022-07-25T17:09:16.052Z,99705.19
2022-07-25T17:11:43.123Z,99718.44
2022-07-25T17:14:09.978Z,99734.38
2022-07-25T17:16:36.809Z,99744.03
2022-07-25T17:19:04.383Z,99735.81
2022-07-25T17:21:32.450Z,99732.91
2022-07-25T17:23:59.250Z,99733.59
2022-07-25T17:26:25.832Z,99728.16
2022-07-25T17:28:53.758Z,99732.66
2022-07-25T17:31:20.651Z,99726.69
2022-07-25T17:33:47.776Z,99752.75
2022-07-25T17:36:14.544Z,99751.50
2022-07-25T17:38:41.283Z,99763.13
2022-07-25T17:41:07.938Z,99763.63
2022-07-25T17:43:34.778Z,99764.25
2022-07-25T17:46:01.635Z,99771.78
2022-07-25T17:48:28.587Z,99764.38
2022-07-25T17:50:55.181Z,99779.97
2022-07-25T17:53:21.892Z,99789.78
2022-07-25T17:55:48.675Z,99788.41
2022-07-25T17:58:15.388Z,99790.91
2022-07-25T18:00:42.124Z,99795.59
2022-07-25T18:03:09.243Z,99810.50
2022-07-25T18:05:36.041Z,99812.84
2022-07-25T18:08:03.257Z,99808.44
2022-07-25T18:10:30.272Z,99827.97
2022-07-25T18:13:00.247Z,99835.34
2022-07-25T18:15:27.059Z,99848.91
2022-07-25T18:17:54.130Z,99853.00
2022-07-25T18:20:21.281Z,99846.53
2022-07-25T18:22:48.069Z,99857.97
2022-07-25T18:25:15.268Z,99873.47
2022-07-25T18:27:43.927Z,99875.47
2022-07-25T18:30:11.700Z,99880.84
2022-07-25T18:32:39.311Z,99898.06
2022-07-25T18:35:07.891Z,99895.69
2022-07-25T18:37:35.469Z,99892.66
2022-07-25T18:40:02.186Z,99896.03
2022-07-25T18:42:30.025Z,99913.22
2022-07-25T18:44:57.351Z,99912.44
2022-07-25T18:47:26.805Z,99906.69
2022-07-25T18:49:59.748Z,99906.25
2022-07-25T18:52:27.189Z,99917.75
2022-07-25T18:54:53.868Z,99927.28
2022-07-25T18:57:20.724Z,99926.56
2022-07-25T18:59:47.775Z,99962.59
2022-07-25T19:02:14.487Z,99974.19
2022-07-25T19:04:41.367Z,99986.53
2022-07-25T19:07:08.956Z,100005.28
2022-07-25T19:09:35.775Z,100020.25
2022-07-25T19:12:05.456Z,100018.53
2022-07-25T19:14:32.235Z,100037.41
2022-07-25T19:16:59.467Z,100047.50
2022-07-25T19:19:26.981Z,100039.53
2022-07-25T19:21:53.861Z,100018.75
2022-07-25T19:24:21.103Z,100028.22
2022-07-25T19:26:49.829Z,100029.06
2022-07-25T19:29:16.941Z,100046.59
2022-07-25T19:31:43.535Z,100036.44
2022-07-25T19:34:11.476Z,100040.03
2022-07-25T19:36:38.658Z,100032.25
2022-07-25T19:39:06.261Z,100043.66
2022-07-25T19:41:33.965Z,100049.47
2022-07-25T19:44:00.879Z,100058.91
2022-07-25T19:46:31.310Z,100047.47
2022-07-25T19:48:58.425Z,100061.88
2022-07-25T19:51:25.306Z,100058.69
2022-07-25T19:53:52.173Z,100056.81
2022-07-25T19:56:19.379Z,100061.75
2022-07-25T19:58:46.614Z,100055.88
2022-07-25T20:01:13.356Z,100050.06
2022-07-25T20:03:41.306Z,100053.63
2022-07-25T20:06:08.826Z,100068.03
2022-07-25T20:08:36.854Z,100069.38
2022-07-25T20:11:03.654Z,100062.91
2022-07-25T20:13:30.545Z,100067.03
2022-07-25T20:15:58.654Z,100056.91
2022-07-25T20:18:27.844Z,100060.00
2022-07-25T20:20:54.568Z,100064.41
2022-07-25T20:23:23.478Z,100059.09
2022-07-25T20:25:50.335Z,100061.72
2022-07-25T20:28:17.137Z,100066.97
2022-07-25T20:30:46.112Z,100059.34
2022-07-25T20:33:15.438Z,100061.88
2022-07-25T20:35:42.147Z,100061.22
2022-07-25T20:38:09.472Z,100058.00
2022-07-25T20:40:44.046Z,100066.19
2022-07-25T20:43:15.274Z,100055.41
2022-07-25T20:45:42.434Z,100078.78
2022-07-25T20:48:09.498Z,100070.69
2022-07-25T20:50:37.417Z,100071.69
2022-07-25T20:53:06.122Z,100079.81
2022-07-25T20:55:33.878Z,100073.88
2022-07-25T20:58:00.734Z,100083.75
2022-07-25T21:00:30.035Z,100081.34
2022-07-25T21:02:58.081Z,100077.69
2022-07-25T21:05:25.839Z,100077.25
2022-07-25T21:07:53.216Z,100080.28
2022-07-25T21:10:20.479Z,100085.72
2022-07-25T21:12:47.498Z,100093.78
2022-07-25T21:15:15.119Z,100095.88
2022-07-25T21:17:41.919Z,100103.00
2022-07-25T21:20:13.979Z,100107.03
2022-07-25T21:22:41.607Z,100098.47
2022-07-25T21:25:09.541Z,100097.88
2022-07-25T21:27:37.168Z,100093.34
2022-07-25T21:30:09.314Z,100102.53
2022-07-25T21:32:36.646Z,100100.16
2022-07-25T21:35:04.995Z,100106.50
2022-07-25T21:37:31.918Z,100101.16
2022-07-25T21:39:58.615Z,100100.50
2022-07-25T21:42:25.428Z,100097.41
2022-07-25T21:44:52.169Z,100103.56
2022-07-25T21:47:18.953Z,100109.66
2022-07-25T21:50:04.264Z,100103.88
2022-07-25T21:52:34.787Z,100114.09
2022-07-25T21:55:03.950Z,100118.13
2022-07-25T21:57:31.201Z,100113.59
2022-07-25T21:59:58.362Z,100113.88
2022-07-25T22:02:25.031Z,100107.81
2022-07-25T22:04:51.778Z,100103.00
2022-07-25T22:07:18.615Z,100112.09
2022-07-25T22:09:45.585Z,100110.34
2022-07-25T22:12:12.472Z,100112.31
2022-07-25T22:14:39.314Z,100117.03
2022-07-25T22:17:06.217Z,100125.19
2022-07-25T22:19:33.479Z,100118.00
2022-07-25T22:22:00.128Z,100114.31
2022-07-25T22:24:26.982Z,100121.81
2022-07-25T22:26:53.765Z,100120.66
2022-07-25T22:29:21.067Z,100122.31
2022-07-25T22:31:47.871Z,100125.41
2022-07-25T22:34:14.701Z,100126.03
2022-07-25T22:36:41.368Z,100119.94
2022-07-25T22:39:08.574Z,100142.34
2022-07-25T22:41:35.560Z,100138.63
2022-07-25T22:44:03.188Z,100152.09
2022-07-25T22:46:32.540Z,100151.19
2022-07-25T22:48:59.617Z,100151.56
2022-07-25T22:51:27.730Z,100155.25
2022-07-25T22:53:55.238Z,100157.88
2022-07-25T22:56:22.482Z,100161.56
2022-07-25T22:58:49.496Z,100158.28
2022-07-25T23:01:17.839Z,100162.66
2022-07-25T23:03:45.511Z,100164.88
2022-07-25T23:06:12.575Z,100164.19
2022-07-25T23:08:39.392Z,100163.97
2022-07-25T23:11:06.269Z,100170.84
2022-07-25T23:13:34.047Z,100177.91
2022-07-25T23:16:01.713Z,100179.91
2022-07-25T23:18:30.695Z,100188.56
2022-07-25T23:20:57.470Z,100180.88
2022-07-25T23:23:24.468Z,100180.69
2022-07-25T23:25:51.319Z,100191.84
2022-07-25T23:28:18.116Z,100192.19
2022-07-25T23:30:44.803Z,100197.94
2022-07-25T23:33:12.095Z,100196.91
2022-07-25T23:35:38.628Z,100198.44
2022-07-25T23:38:05.415Z,100193.38
2022-07-25T23:40:32.115Z,100187.53
2022-07-25T23:42:59.037Z,100183.19
2022-07-25T23:45:27.928Z,100179.13
2022-07-25T23:47:56.448Z,100179.13
2022-07-25T23:50:23.833Z,100174.94
2022-07-25T23:52:51.144Z,100180.03
2022-07-25T23:55:17.863Z,100180.50
2022-07-25T23:57:44.662Z,100185.81
